Time;durP1;ratioP1;P1;durP2;ratioP2;P2;SDS_P1;SDS_P2;PMS_P1;PMS_P2;Temp;Humidity;BMP_temperature;BMP_pressure;BME280_temperature;BME280_humidity;BME280_pressure;Samples;Min_cycle;Max_cycle;Signal;HPM_P1;HPM_P2
2023/08/19 00:01:50;;;;;;;9.60;8.00;;;;;;;19.93;82.07;100445.25;130545;1260;98735;-76
2023/08/19 00:04:56;;;;;;;10.10;7.40;;;;;;;19.93;82.07;100446.67;130515;1260;98554;-77
2023/08/19 00:08:02;;;;;;;7.70;6.80;;;;;;;19.93;82.13;100447.29;130581;1269;98017;-77
2023/08/19 00:11:08;;;;;;;6.90;5.80;;;;;;;19.90;81.96;100447.67;130526;1261;99122;-78
2023/08/19 00:14:14;;;;;;;5.80;5.30;;;;;;;19.87;81.82;100445.27;130528;1255;99259;-77
2023/08/19 00:17:19;;;;;;;5.90;5.30;;;;;;;19.83;81.90;100443.23;130544;1269;98752;-77
2023/08/19 00:20:28;;;;;;;6.20;5.50;;;;;;;19.81;81.82;100442.56;130592;1260;99138;-77
2023/08/19 00:23:33;;;;;;;6.90;6.20;;;;;;;19.80;81.80;100439.48;130609;1261;98025;-77
2023/08/19 00:26:39;;;;;;;7.80;6.50;;;;;;;19.79;81.85;100432.06;130569;1258;98049;-77
2023/08/19 00:29:45;;;;;;;6.50;5.80;;;;;;;19.78;81.87;100429.94;130524;1258;99020;-77
2023/08/19 00:32:50;;;;;;;7.20;5.90;;;;;;;19.75;81.70;100430.94;130471;1261;98036;-76
2023/08/19 00:35:56;;;;;;;5.60;5.10;;;;;;;19.72;81.80;100428.82;130473;1272;97977;-77
2023/08/19 00:39:03;;;;;;;7.00;6.10;;;;;;;19.72;81.86;100424.02;130563;1261;98106;-77
2023/08/19 00:42:09;;;;;;;6.90;5.70;;;;;;;19.71;81.63;100423.39;130567;1261;97966;-77
2023/08/19 00:45:15;;;;;;;6.70;6.00;;;;;;;19.65;81.89;100422.15;130768;1260;98034;-77
2023/08/19 00:48:23;;;;;;;6.30;5.70;;;;;;;19.65;81.96;100422.54;130542;1259;98024;-77
2023/08/19 00:51:28;;;;;;;6.90;6.20;;;;;;;19.63;81.92;100428.41;130614;1257;127580;-77
2023/08/19 00:54:34;;;;;;;6.40;5.80;;;;;;;19.59;81.75;100425.95;130593;1260;98749;-77
2023/08/19 00:57:41;;;;;;;6.10;5.30;;;;;;;19.56;81.84;100419.96;130610;1260;99164;-76
2023/08/19 01:00:49;;;;;;;6.20;4.90;;;;;;;19.51;81.90;100426.36;130617;1260;98769;-79
2023/08/19 01:03:54;;;;;;;5.80;5.10;;;;;;;19.49;81.79;100425.04;130489;1257;99234;-77
2023/08/19 01:07:06;;;;;;;6.50;5.70;;;;;;;19.48;81.87;100415.79;130612;1260;97970;-78
2023/08/19 01:10:20;;;;;;;8.10;6.30;;;;;;;19.49;82.10;100413.88;130496;1254;99810;-78
2023/08/19 01:13:33;;;;;;;7.40;6.20;;;;;;;19.51;82.11;100411.59;130641;1260;98642;-78
2023/08/19 01:16:44;;;;;;;8.00;6.20;;;;;;;19.51;81.93;100416.36;130619;1261;99020;-78
2023/08/19 01:19:50;;;;;;;6.60;6.00;;;;;;;19.42;81.82;100416.38;130647;1260;98629;-78
2023/08/19 01:23:01;;;;;;;5.80;5.20;;;;;;;19.37;82.10;100418.48;130485;1261;98645;-78
2023/08/19 01:26:07;;;;;;;6.90;5.40;;;;;;;19.38;82.10;100412.86;130580;1267;99167;-78
2023/08/19 01:29:12;;;;;;;7.70;5.70;;;;;;;19.37;82.13;100416.90;130496;1260;97945;-78
2023/08/19 01:32:19;;;;;;;5.50;4.80;;;;;;;19.39;82.27;100418.84;130573;1267;97960;-78
2023/08/19 01:35:26;;;;;;;5.70;5.20;;;;;;;19.40;82.07;100419.63;130730;1254;97896;-80
2023/08/19 01:38:40;;;;;;;9.10;5.70;;;;;;;19.41;82.09;100417.08;130602;1254;99156;-78
2023/08/19 01:41:46;;;;;;;6.10;5.40;;;;;;;19.39;81.96;100412.49;130618;1261;98031;-78
2023/08/19 01:44:55;;;;;;;7.50;5.30;;;;;;;19.35;81.85;100413.99;130590;1255;99151;-78
2023/08/19 01:48:02;;;;;;;5.70;5.10;;;;;;;19.31;82.37;100408.52;130582;1257;98037;-78
2023/08/19 01:51:07;;;;;;;5.10;4.70;;;;;;;19.35;82.28;100408.51;130486;1260;98030;-78
2023/08/19 01:54:13;;;;;;;7.70;5.00;;;;;;;19.36;82.12;100400.39;130561;1260;97937;-78
2023/08/19 01:57:19;;;;;;;6.20;4.70;;;;;;;19.37;82.15;100396.55;130241;1260;97976;-78
2023/08/19 02:00:24;;;;;;;5.60;5.00;;;;;;;19.39;81.93;100397.59;130403;1261;99141;-77
2023/08/19 02:03:30;;;;;;;5.30;4.80;;;;;;;19.35;81.83;100397.77;130390;1259;99256;-78
2023/08/19 02:06:36;;;;;;;6.00;5.40;;;;;;;19.30;81.93;100400.88;130351;1260;98074;-77
2023/08/19 02:09:43;;;;;;;5.80;4.70;;;;;;;19.26;81.84;100400.80;130504;1257;97963;-77
2023/08/19 02:12:48;;;;;;;5.20;4.50;;;;;;;19.22;81.86;100406.41;130491;1262;97954;-77
2023/08/19 02:15:54;;;;;;;5.90;5.10;;;;;;;19.20;81.77;100407.94;130534;1259;99129;-76
2023/08/19 02:19:01;;;;;;;5.40;4.90;;;;;;;19.21;81.99;100410.36;130519;1257;98147;-76
2023/08/19 02:22:07;;;;;;;5.00;4.40;;;;;;;19.28;81.76;100410.02;130609;1265;98034;-76
2023/08/19 02:25:13;;;;;;;4.70;4.30;;;;;;;19.26;81.68;100408.90;130550;1259;99140;-76
2023/08/19 02:28:18;;;;;;;5.40;4.90;;;;;;;19.24;81.84;100408.08;130515;1259;97969;-76
2023/08/19 02:31:26;;;;;;;5.50;5.00;;;;;;;19.20;81.73;100403.45;130566;1255;99066;-77
2023/08/19 02:34:32;;;;;;;6.50;4.50;;;;;;;19.18;81.74;100402.91;130430;1261;98637;-76
2023/08/19 02:37:37;;;;;;;6.20;4.20;;;;;;;19.15;81.64;100402.20;130552;1260;97934;-77
2023/08/19 02:40:48;;;;;;;5.50;5.00;;;;;;;19.09;81.54;100401.02;130509;1259;97960;-77
2023/08/19 02:43:53;;;;;;;5.60;4.90;;;;;;;19.08;81.71;100405.84;130517;1260;97954;-78
2023/08/19 02:46:59;;;;;;;5.20;4.70;;;;;;;19.09;81.76;100406.26;130565;1261;98050;-77
2023/08/19 02:50:05;;;;;;;6.80;5.70;;;;;;;19.07;81.84;100401.42;130455;1262;99167;-77
2023/08/19 02:53:11;;;;;;;6.40;5.70;;;;;;;19.06;81.88;100398.17;130587;1258;97951;-77
2023/08/19 02:56:17;;;;;;;6.10;5.40;;;;;;;19.04;82.05;100399.17;130463;1260;98031;-76
2023/08/19 02:59:23;;;;;;;5.80;5.00;;;;;;;19.01;82.05;100400.63;130624;1259;97988;-76
2023/08/19 03:02:28;;;;;;;5.50;5.00;;;;;;;19.02;82.17;100399.05;130629;1269;98681;-76
2023/08/19 03:05:38;;;;;;;6.10;5.20;;;;;;;19.05;81.99;100401.49;130529;1259;97944;-76
2023/08/19 03:08:43;;;;;;;6.10;5.40;;;;;;;19.01;81.99;100400.46;130653;1259;98047;-76
2023/08/19 03:11:49;;;;;;;6.80;5.40;;;;;;;19.01;82.06;100406.79;130503;1260;98764;-76
2023/08/19 03:14:54;;;;;;;6.10;5.50;;;;;;;18.99;81.92;100404.08;130459;1267;98846;-76
2023/08/19 03:18:00;;;;;;;10.10;5.50;;;;;;;18.98;82.06;100398.76;130498;1261;98015;-76
2023/08/19 03:21:05;;;;;;;6.00;4.40;;;;;;;18.97;82.14;100398.28;130471;1258;98405;-76
2023/08/19 03:24:11;;;;;;;7.80;6.00;;;;;;;18.97;82.11;100394.88;130581;1259;98080;-76
2023/08/19 03:27:17;;;;;;;5.70;5.10;;;;;;;18.94;82.05;100391.26;130435;1261;97951;-77
2023/08/19 03:30:22;;;;;;;5.80;5.20;;;;;;;18.92;82.19;100395.56;130567;1259;97961;-76
2023/08/19 03:33:28;;;;;;;6.00;5.40;;;;;;;18.94;82.17;100398.38;130417;1257;98032;-77
2023/08/19 03:36:34;;;;;;;6.70;5.30;;;;;;;18.95;82.31;100399.16;130541;1259;98037;-76
2023/08/19 03:39:40;;;;;;;6.30;5.00;;;;;;;18.96;82.28;100399.67;130561;1261;99023;-76
2023/08/19 03:42:45;;;;;;;5.30;4.80;;;;;;;18.96;82.34;100401.25;130462;1261;98050;-77
2023/08/19 03:45:51;;;;;;;5.80;5.00;;;;;;;18.98;82.26;100404.20;130564;1260;97970;-77
2023/08/19 03:48:57;;;;;;;6.30;5.40;;;;;;;19.01;82.28;100401.83;130403;1260;98246;-77
2023/08/19 03:52:02;;;;;;;6.00;4.70;;;;;;;19.04;82.22;100405.30;130437;1258;98029;-77
2023/08/19 03:55:09;;;;;;;5.50;4.90;;;;;;;19.06;82.21;100410.24;130598;1259;98347;-77
2023/08/19 03:58:14;;;;;;;5.70;5.20;;;;;;;19.07;82.00;100410.98;130707;1260;99125;-77
2023/08/19 04:01:20;;;;;;;6.50;5.20;;;;;;;19.06;81.98;100408.75;130575;1259;98098;-77
2023/08/19 04:04:26;;;;;;;7.10;6.20;;;;;;;19.05;82.25;100409.13;130492;1259;99250;-76
2023/08/19 04:07:32;;;;;;;6.80;5.50;;;;;;;19.06;82.23;100416.61;130472;1260;98037;-76
2023/08/19 04:10:37;;;;;;;6.40;5.70;;;;;;;18.98;81.98;100414.07;130512;1260;98031;-76
2023/08/19 04:13:43;;;;;;;6.70;6.00;;;;;;;18.86;82.35;100412.91;130476;1260;98034;-76
2023/08/19 04:16:48;;;;;;;9.70;7.20;;;;;;;18.88;82.41;100411.86;130562;1270;98760;-76
2023/08/19 04:19:54;;;;;;;8.20;6.70;;;;;;;18.89;82.52;100416.99;130490;1260;98724;-77
2023/08/19 04:23:00;;;;;;;8.00;6.80;;;;;;;18.93;82.44;100426.56;130500;1259;99240;-76
2023/08/19 04:26:06;;;;;;;7.20;5.80;;;;;;;18.92;82.35;100430.89;130542;1255;97944;-76
2023/08/19 04:29:11;;;;;;;5.80;5.20;;;;;;;18.84;82.48;100431.20;130633;1257;98043;-76
2023/08/19 04:32:17;;;;;;;7.30;5.80;;;;;;;18.82;82.56;100430.73;130580;1259;98332;-76
2023/08/19 04:35:29;;;;;;;7.80;6.60;;;;;;;18.78;82.61;100430.23;130540;1270;99282;-77
2023/08/19 04:38:33;;;;;;;;;;;;;;;18.80;82.80;100430.23;130519;1261;98086;-76
2023/08/19 04:41:41;;;;;;;8.40;6.00;;;;;;;18.92;82.74;100428.22;130537;1257;98314;-76
2023/08/19 04:44:47;;;;;;;7.10;5.90;;;;;;;18.91;82.72;100431.55;130460;1261;98018;-77
2023/08/19 04:47:52;;;;;;;8.30;6.50;;;;;;;18.89;82.89;100438.33;130557;1261;97998;-77
2023/08/19 04:51:00;;;;;;;8.50;6.70;;;;;;;18.83;82.98;100436.15;130517;1259;98031;-77
2023/08/19 04:54:09;;;;;;;7.10;6.40;;;;;;;18.78;83.17;100437.86;130693;1259;98037;-76
2023/08/19 04:57:15;;;;;;;10.40;8.10;;;;;;;18.60;83.16;100441.35;130589;1255;98666;-76
2023/08/19 05:00:21;;;;;;;15.30;9.70;;;;;;;18.32;84.03;100442.20;130897;1259;99026;-76
2023/08/19 05:03:26;;;;;;;10.00;8.30;;;;;;;18.07;84.70;100440.65;130555;1256;98044;-77
2023/08/19 05:06:33;;;;;;;8.10;7.30;;;;;;;17.99;85.40;100443.21;130556;1260;98770;-76
2023/08/19 05:09:38;;;;;;;9.30;7.00;;;;;;;18.11;85.75;100439.21;130579;1256;99049;-76
2023/08/19 05:12:45;;;;;;;7.50;6.80;;;;;;;18.33;85.69;100439.14;130578;1256;98037;-76
2023/08/19 05:15:50;;;;;;;7.20;6.50;;;;;;;18.67;85.70;100443.83;130576;1259;98760;-76
2023/08/19 05:19:17;;;;;;;6.70;6.10;;;;;;;19.01;85.53;100441.98;130438;1260;99106;-76
2023/08/19 05:22:24;;;;;;;7.10;5.60;;;;;;;19.36;85.40;100443.96;130606;1259;98041;-76
2023/08/19 05:25:30;;;;;;;7.80;6.30;;;;;;;19.71;85.45;100441.95;130516;1259;99160;-76
2023/08/19 05:28:35;;;;;;;7.70;6.00;;;;;;;20.02;85.30;100446.70;130543;1259;98113;-76
2023/08/19 05:31:41;;;;;;;8.00;7.20;;;;;;;20.31;85.08;100449.85;130549;1259;98033;-76
2023/08/19 05:34:47;;;;;;;6.20;5.60;;;;;;;20.50;85.14;100448.25;130544;1257;97967;-77
2023/08/19 05:37:53;;;;;;;8.30;7.10;;;;;;;20.73;85.00;100446.91;130566;1259;97951;-77
2023/08/19 05:40:58;;;;;;;8.00;7.20;;;;;;;20.99;84.99;100445.83;130537;1259;98050;-77
2023/08/19 05:44:05;;;;;;;8.60;7.80;;;;;;;21.22;85.11;100444.72;130587;1256;97973;-75
2023/08/19 05:47:10;;;;;;;9.50;8.40;;;;;;;21.47;85.15;100448.29;130647;1260;99120;-76
2023/08/19 05:50:16;;;;;;;10.40;9.30;;;;;;;21.64;84.94;100451.14;130536;1256;98038;-76
2023/08/19 05:53:22;;;;;;;10.20;8.90;;;;;;;21.81;85.11;100447.15;130856;1259;97941;-76
2023/08/19 05:56:28;;;;;;;9.10;8.20;;;;;;;21.95;85.31;100437.31;130593;1259;99055;-76
2023/08/19 05:59:34;;;;;;;9.40;8.40;;;;;;;22.09;85.30;100432.54;130771;1259;99135;-76
2023/08/19 06:02:39;;;;;;;12.90;11.50;;;;;;;22.27;85.37;100431.87;130609;1256;98129;-76
2023/08/19 06:05:46;;;;;;;14.10;12.00;;;;;;;22.42;85.61;100431.79;130577;1259;98036;-78
2023/08/19 06:08:51;;;;;;;12.60;11.40;;;;;;;22.53;85.61;100434.80;130667;1259;99026;-77
2023/08/19 06:11:57;;;;;;;12.00;10.80;;;;;;;22.60;85.82;100437.06;130685;1257;98040;-78
2023/08/19 06:15:03;;;;;;;13.30;11.90;;;;;;;22.60;85.92;100437.18;131716;1255;97928;-77
2023/08/19 06:18:09;;;;;;;10.90;9.40;;;;;;;22.70;85.48;100433.08;130535;1259;99231;-78
2023/08/19 06:21:14;;;;;;;10.80;9.70;;;;;;;22.88;85.05;100434.48;130537;1259;98026;-77
2023/08/19 06:24:20;;;;;;;10.30;8.90;;;;;;;23.05;85.29;100441.55;130625;1259;97976;-77
2023/08/19 06:27:25;;;;;;;12.50;11.30;;;;;;;23.19;85.23;100442.63;130510;1257;98787;-77
2023/08/19 06:30:32;;;;;;;10.70;9.60;;;;;;;23.29;85.76;100443.45;130607;1256;97973;-77
2023/08/19 06:33:38;;;;;;;13.30;12.00;;;;;;;23.34;85.68;100445.58;130602;1259;99266;-77
2023/08/19 06:36:47;;;;;;;12.60;11.50;;;;;;;23.33;85.27;100447.13;130634;1256;99171;-79
2023/08/19 06:39:57;;;;;;;10.20;9.20;;;;;;;23.37;85.45;100445.10;130519;1259;98736;-79
2023/08/19 06:43:07;;;;;;;10.10;9.10;;;;;;;23.40;85.44;100448.05;130494;1259;99130;-79
2023/08/19 06:46:14;;;;;;;11.50;10.40;;;;;;;23.44;85.70;100446.97;130640;1259;99131;-78
2023/08/19 06:49:20;;;;;;;11.70;10.50;;;;;;;23.58;85.63;100447.15;130853;1259;99199;-78
2023/08/19 06:52:27;;;;;;;11.00;9.90;;;;;;;23.68;85.72;100448.10;130754;1258;97989;-78
2023/08/19 06:55:34;;;;;;;11.30;10.20;;;;;;;23.76;85.56;100449.63;130834;1257;98994;-78
2023/08/19 06:58:45;;;;;;;12.70;11.40;;;;;;;23.80;85.33;100454.30;131505;1255;98053;-78
2023/08/19 07:01:53;;;;;;;11.80;10.60;;;;;;;23.73;85.08;100457.61;130623;1259;97953;-78
2023/08/19 07:05:00;;;;;;;10.90;9.80;;;;;;;23.66;85.11;100455.38;130527;1259;98028;-78
2023/08/19 07:08:11;;;;;;;11.70;10.60;;;;;;;23.68;85.58;100453.73;130539;1256;98924;-79
2023/08/19 07:11:18;;;;;;;13.20;12.00;;;;;;;23.77;85.54;100459.94;130578;1259;98010;-78
2023/08/19 07:14:25;;;;;;;12.90;11.70;;;;;;;23.72;84.72;100463.67;130520;1259;99158;-78
2023/08/19 07:17:32;;;;;;;12.10;10.50;;;;;;;23.71;85.32;100467.49;130495;1257;97966;-78
2023/08/19 07:20:39;;;;;;;12.50;11.30;;;;;;;23.80;85.30;100469.18;130552;1257;98766;-78
2023/08/19 07:23:48;;;;;;;13.20;11.10;;;;;;;23.80;84.96;100470.90;130603;1255;98035;-77
2023/08/19 07:26:54;;;;;;;12.90;11.70;;;;;;;23.86;85.28;100474.37;130516;1257;97941;-78
2023/08/19 07:30:00;;;;;;;14.30;12.60;;;;;;;24.00;85.62;100482.63;130794;1259;98659;-78
2023/08/19 07:33:07;;;;;;;11.70;10.60;;;;;;;24.11;85.40;100488.19;130562;1271;97974;-78
2023/08/19 07:36:13;;;;;;;11.30;9.70;;;;;;;24.18;85.01;100490.75;130727;1259;98018;-77
2023/08/19 07:39:19;;;;;;;12.30;11.20;;;;;;;24.30;85.20;100494.46;131030;1256;97883;-80
2023/08/19 07:42:25;;;;;;;13.20;11.50;;;;;;;24.43;85.06;100496.66;130786;1259;97979;-78
2023/08/19 07:45:30;;;;;;;12.60;11.50;;;;;;;24.53;84.66;100495.74;131025;1259;99209;-79
2023/08/19 07:48:36;;;;;;;13.40;12.10;;;;;;;24.59;84.59;100495.30;130917;1255;98008;-80
2023/08/19 07:51:42;;;;;;;14.60;13.20;;;;;;;24.66;84.48;100496.47;130771;1259;98072;-78
2023/08/19 07:54:47;;;;;;;12.50;11.30;;;;;;;24.68;84.38;100499.52;130954;1255;99126;-78
2023/08/19 07:57:53;;;;;;;13.20;12.10;;;;;;;24.77;84.39;100500.73;130792;1258;97961;-78
2023/08/19 08:00:58;;;;;;;13.80;12.40;;;;;;;24.88;84.50;100498.84;130755;1256;98316;-78
2023/08/19 08:04:05;;;;;;;14.00;12.50;;;;;;;24.96;84.25;100499.00;131323;1255;97967;-80
2023/08/19 08:07:10;;;;;;;13.60;12.30;;;;;;;25.04;84.22;100491.61;131065;1259;97947;-79
2023/08/19 08:10:16;;;;;;;12.80;11.40;;;;;;;25.15;84.02;100492.16;130609;1259;98056;-79
2023/08/19 08:13:22;;;;;;;11.80;10.70;;;;;;;25.19;83.62;100494.84;130969;1256;99141;-79
2023/08/19 08:16:28;;;;;;;13.70;12.30;;;;;;;25.24;83.66;100497.14;130754;1259;99086;-80
2023/08/19 08:19:33;;;;;;;13.30;12.00;;;;;;;25.24;82.60;100500.05;130727;1259;97958;-80
2023/08/19 08:22:39;;;;;;;14.90;13.30;;;;;;;25.28;82.77;100497.58;130690;1259;98030;-79
2023/08/19 08:25:45;;;;;;;11.80;10.70;;;;;;;25.33;82.67;100498.69;130560;1260;98020;-80
2023/08/19 08:28:51;;;;;;;13.20;12.00;;;;;;;25.40;82.71;100500.95;130893;1255;98137;-80
2023/08/19 08:31:56;;;;;;;11.10;10.10;;;;;;;25.48;83.08;100504.00;130649;1259;99026;-80
2023/08/19 08:35:02;;;;;;;11.80;10.60;;;;;;;25.59;83.34;100503.41;131042;1259;97958;-80
2023/08/19 08:38:08;;;;;;;12.00;10.20;;;;;;;25.68;82.62;100504.02;130744;1259;99128;-80
2023/08/19 08:41:14;;;;;;;11.10;10.10;;;;;;;25.74;82.57;100507.67;130583;1259;97989;-80
2023/08/19 08:44:20;;;;;;;14.40;11.90;;;;;;;25.83;82.24;100505.68;130670;1259;99062;-80
2023/08/19 08:47:28;;;;;;;13.00;11.80;;;;;;;25.91;82.31;100501.89;130868;1257;97954;-80
2023/08/19 08:50:34;;;;;;;12.80;11.60;;;;;;;25.98;82.22;100499.33;130998;1256;99172;-80
2023/08/19 08:53:40;;;;;;;12.20;11.10;;;;;;;26.05;82.01;100499.16;130934;1259;99052;-80
2023/08/19 08:56:45;;;;;;;12.00;10.90;;;;;;;26.11;82.51;100496.69;130824;1259;99163;-79
2023/08/19 08:59:52;;;;;;;11.60;10.50;;;;;;;26.20;82.22;100498.19;130794;1259;99252;-79
2023/08/19 09:03:00;;;;;;;13.20;11.80;;;;;;;26.24;81.74;100495.47;131054;1260;99135;-80
2023/08/19 09:06:11;;;;;;;13.30;12.10;;;;;;;26.27;81.35;100494.52;132029;1259;98165;-79
2023/08/19 09:09:18;;;;;;;12.90;11.70;;;;;;;26.30;81.20;100487.65;131328;1256;98088;-79
2023/08/19 09:12:25;;;;;;;12.60;11.40;;;;;;;26.36;81.96;100480.30;130675;1256;97961;-78
2023/08/19 09:15:32;;;;;;;12.00;10.70;;;;;;;26.43;81.48;100477.23;131639;1255;98368;-80
2023/08/19 09:18:37;;;;;;;11.00;9.90;;;;;;;26.49;81.30;100475.93;131321;1259;98123;-79
2023/08/19 09:21:44;;;;;;;12.40;11.30;;;;;;;26.57;81.61;100472.22;130861;1256;98072;-79
2023/08/19 09:24:52;;;;;;;11.60;10.60;;;;;;;26.63;81.09;100471.98;130668;1259;98006;-79
2023/08/19 09:27:58;;;;;;;11.20;10.20;;;;;;;26.69;81.17;100472.02;130585;1260;97974;-78
2023/08/19 09:31:20;;;;;;;11.90;10.80;;;;;;;26.77;80.68;100472.55;130470;1259;99157;-79
2023/08/19 09:34:25;;;;;;;12.40;11.20;;;;;;;26.85;80.46;100475.10;130984;1259;97958;-78
2023/08/19 09:37:31;;;;;;;12.50;11.30;;;;;;;26.87;80.47;100474.89;130548;1259;99118;-78
2023/08/19 09:40:37;;;;;;;11.30;10.30;;;;;;;26.92;80.49;100469.11;130601;1255;99190;-79
2023/08/19 09:43:43;;;;;;;11.30;10.30;;;;;;;26.96;80.38;100469.24;131025;1256;97970;-79
2023/08/19 09:46:48;;;;;;;11.20;10.10;;;;;;;26.99;79.85;100467.70;130563;1259;99183;-79
2023/08/19 09:49:57;;;;;;;11.30;10.30;;;;;;;27.04;79.57;100464.03;130511;1256;97962;-80
2023/08/19 09:53:03;;;;;;;11.90;10.70;;;;;;;27.12;79.72;100464.55;130618;1259;97973;-79
2023/08/19 09:56:19;;;;;;;11.70;10.70;;;;;;;27.18;79.38;100461.60;130610;1255;97939;-79
2023/08/19 09:59:25;;;;;;;12.10;10.90;;;;;;;27.22;78.80;100460.27;130661;1257;99004;-79
2023/08/19 10:02:31;;;;;;;11.80;10.70;;;;;;;27.22;78.53;100459.23;130656;1259;97983;-79
2023/08/19 10:05:40;;;;;;;12.20;11.10;;;;;;;27.22;78.35;100460.48;130679;1259;99231;-79
2023/08/19 10:08:48;;;;;;;11.20;10.10;;;;;;;27.24;78.52;100459.38;130601;1259;97958;-80
2023/08/19 10:11:55;;;;;;;10.70;9.60;;;;;;;27.29;79.01;100457.27;130615;1259;98134;-80
2023/08/19 10:15:03;;;;;;;11.80;10.70;;;;;;;27.38;79.15;100457.44;130591;1256;99078;-79
2023/08/19 10:18:12;;;;;;;10.70;9.80;;;;;;;27.47;78.66;100454.95;130840;1255;98755;-80
2023/08/19 10:21:22;;;;;;;11.50;10.40;;;;;;;27.52;78.47;100456.35;130636;1259;97973;-80
2023/08/19 10:24:29;;;;;;;11.90;10.80;;;;;;;27.55;78.12;100456.60;130741;1259;99234;-79
2023/08/19 10:27:36;;;;;;;11.40;10.40;;;;;;;27.59;77.62;100461.29;130687;1259;99183;-79
2023/08/19 10:30:42;;;;;;;10.80;9.70;;;;;;;27.62;77.49;100460.16;130667;1259;98030;-79
2023/08/19 10:33:50;;;;;;;10.40;9.50;;;;;;;27.66;77.66;100462.71;130854;1259;97996;-79
2023/08/19 10:37:10;;;;;;;10.20;9.40;;;;;;;27.70;76.83;100457.23;130624;1256;98038;-80
2023/08/19 10:40:21;;;;;;;14.10;9.30;;;;;;;27.71;76.61;100460.95;130787;1259;97999;-79
2023/08/19 10:43:26;;;;;;;8.90;8.00;;;;;;;27.76;76.64;100464.95;130598;1257;98744;-80
2023/08/19 10:46:37;;;;;;;9.00;8.10;;;;;;;27.83;76.51;100461.41;130652;1259;97970;-78
2023/08/19 10:49:42;;;;;;;;;;;;;;;27.89;75.30;100457.81;130555;1261;99120;-81
2023/08/19 10:53:01;;;;;;;9.90;8.90;;;;;;;27.91;75.44;100449.52;130774;1259;97984;-79
2023/08/19 10:56:14;;;;;;;10.80;9.40;;;;;;;27.95;75.17;100450.46;130967;1255;99164;-80
2023/08/19 10:59:21;;;;;;;12.50;8.80;;;;;;;28.01;75.24;100449.83;130597;1259;98757;-80
2023/08/19 11:02:27;;;;;;;9.90;8.70;;;;;;;28.08;74.82;100448.02;130477;1259;98043;-80
2023/08/19 11:05:33;;;;;;;9.80;8.80;;;;;;;28.07;74.25;100447.52;130678;1259;97974;-80
2023/08/19 11:08:47;;;;;;;9.80;8.90;;;;;;;28.05;74.06;100449.10;130591;1259;99253;-79
2023/08/19 11:11:55;;;;;;;9.10;8.20;;;;;;;28.10;74.23;100448.36;130599;1259;99167;-79
2023/08/19 11:15:01;;;;;;;8.80;8.00;;;;;;;28.12;73.13;100451.27;130655;1259;97967;-80
2023/08/19 11:18:07;;;;;;;9.30;8.40;;;;;;;28.16;73.75;100450.48;130848;1269;98043;-79
2023/08/19 11:21:15;;;;;;;8.80;7.90;;;;;;;28.19;73.15;100449.84;130930;1255;97963;-81
2023/08/19 11:24:29;;;;;;;9.10;8.30;;;;;;;28.22;72.91;100451.39;130792;1259;98746;-80
2023/08/19 11:27:35;;;;;;;8.80;7.90;;;;;;;28.25;72.60;100448.23;130708;1257;98623;-80
2023/08/19 11:30:41;;;;;;;8.50;7.70;;;;;;;28.28;72.67;100445.06;130705;1259;98044;-80
2023/08/19 11:33:47;;;;;;;9.60;8.50;;;;;;;28.33;72.47;100443.99;130734;1259;98737;-79
2023/08/19 11:36:54;;;;;;;9.50;8.60;;;;;;;28.35;70.85;100442.45;130513;1259;98063;-78
2023/08/19 11:40:05;;;;;;;9.10;8.20;;;;;;;28.35;71.11;100442.02;130595;1259;99167;-83
2023/08/19 11:43:13;;;;;;;9.30;8.40;;;;;;;28.42;71.35;100441.35;130773;1259;98774;-81
2023/08/19 11:46:19;;;;;;;9.80;8.70;;;;;;;28.47;71.11;100444.34;130807;1259;97938;-80
2023/08/19 11:49:28;;;;;;;9.80;8.80;;;;;;;28.51;71.01;100440.63;130851;1259;99006;-79
2023/08/19 11:52:34;;;;;;;9.50;8.60;;;;;;;28.56;70.94;100441.33;130821;1259;98022;-80
2023/08/19 11:55:39;;;;;;;9.20;8.40;;;;;;;28.60;70.51;100439.20;130806;1259;98551;-81
2023/08/19 11:58:50;;;;;;;9.70;8.40;;;;;;;28.62;70.24;100437.55;130670;1259;99027;-80
2023/08/19 12:01:56;;;;;;;10.60;9.70;;;;;;;28.64;70.30;100436.84;131148;1259;98773;-80
2023/08/19 12:05:02;;;;;;;9.70;8.70;;;;;;;28.69;70.33;100437.80;131639;1258;98000;-80
2023/08/19 12:08:08;;;;;;;9.60;8.70;;;;;;;28.74;70.26;100433.70;130816;1256;99099;-79
2023/08/19 12:11:15;;;;;;;10.70;9.70;;;;;;;28.78;69.37;100436.17;131019;1258;98128;-80
2023/08/19 12:14:20;;;;;;;9.20;8.40;;;;;;;28.84;69.88;100438.08;130787;1256;97978;-79
2023/08/19 12:17:26;;;;;;;9.40;8.60;;;;;;;28.87;69.04;100432.48;131054;1259;97960;-79
2023/08/19 12:20:31;;;;;;;8.70;8.00;;;;;;;28.92;68.81;100436.27;130749;1259;98743;-79
2023/08/19 12:23:37;;;;;;;8.70;7.90;;;;;;;28.96;68.77;100432.92;130725;1259;97964;-79
2023/08/19 12:26:43;;;;;;;8.80;8.00;;;;;;;29.03;68.27;100429.76;130575;1259;99154;-79
2023/08/19 12:29:50;;;;;;;8.90;8.10;;;;;;;29.08;67.96;100426.30;130678;1259;97954;-79
2023/08/19 12:32:55;;;;;;;9.30;8.50;;;;;;;29.12;66.88;100429.66;130594;1259;97950;-79
2023/08/19 12:36:01;;;;;;;8.70;8.00;;;;;;;29.13;67.27;100431.28;130597;1259;97955;-79
2023/08/19 12:39:08;;;;;;;8.80;8.00;;;;;;;29.18;67.09;100427.50;130576;1258;97951;-79
2023/08/19 12:42:13;;;;;;;8.60;7.90;;;;;;;29.17;66.54;100425.52;130672;1259;99139;-79
2023/08/19 12:45:19;;;;;;;9.70;8.60;;;;;;;29.12;66.48;100422.75;130748;1257;99205;-80
2023/08/19 12:48:25;;;;;;;9.40;8.60;;;;;;;29.14;66.32;100424.91;130714;1259;99140;-80
2023/08/19 12:51:30;;;;;;;8.80;7.90;;;;;;;29.21;65.56;100427.12;130655;1259;137868;-80
2023/08/19 12:54:36;;;;;;;9.00;8.20;;;;;;;29.26;66.03;100425.81;130713;1258;99091;-78
2023/08/19 12:57:43;;;;;;;9.00;8.10;;;;;;;29.36;66.41;100426.53;130639;1259;98007;-79
2023/08/19 13:00:49;;;;;;;8.90;8.10;;;;;;;29.33;65.70;100426.41;130633;1259;98095;-79
2023/08/19 13:03:54;;;;;;;9.30;8.30;;;;;;;29.35;65.27;100427.63;130600;1259;98632;-78
2023/08/19 13:07:00;;;;;;;8.70;8.00;;;;;;;29.48;64.31;100427.09;130628;1259;98005;-79
2023/08/19 13:10:07;;;;;;;9.60;7.60;;;;;;;29.65;64.40;100425.48;130585;1259;97996;-79
2023/08/19 13:13:13;;;;;;;8.60;7.70;;;;;;;29.83;64.71;100419.21;130654;1259;97973;-79
2023/08/19 13:16:18;;;;;;;8.30;7.60;;;;;;;29.99;64.44;100420.99;130547;1259;97954;-80
2023/08/19 13:19:24;;;;;;;7.80;7.10;;;;;;;30.07;63.96;100417.02;130521;1256;97945;-79
2023/08/19 13:22:30;;;;;;;7.70;7.10;;;;;;;30.06;61.87;100420.27;130523;1259;97967;-79
2023/08/19 13:25:35;;;;;;;8.20;7.40;;;;;;;30.01;62.32;100418.52;130549;1259;98022;-79
2023/08/19 13:28:41;;;;;;;7.80;7.20;;;;;;;29.90;62.71;100414.35;130558;1259;99144;-82
2023/08/19 13:31:47;;;;;;;8.00;7.30;;;;;;;29.76;62.72;100409.42;131052;1256;97977;-80
2023/08/19 13:34:54;;;;;;;8.20;7.40;;;;;;;29.67;62.91;100403.05;132174;1257;97974;-81
2023/08/19 13:37:59;;;;;;;8.30;7.50;;;;;;;29.57;63.03;100400.08;130779;1259;98738;-79
2023/08/19 13:41:05;;;;;;;8.40;7.50;;;;;;;29.52;62.71;100398.32;130628;1259;98416;-79
2023/08/19 13:44:10;;;;;;;8.80;8.00;;;;;;;29.53;63.06;100392.28;130526;1255;97960;-78
2023/08/19 13:47:16;;;;;;;8.60;7.90;;;;;;;29.56;62.54;100386.65;130556;1259;99046;-79
2023/08/19 13:50:22;;;;;;;8.50;7.70;;;;;;;29.57;62.37;100380.56;130585;1256;99132;-79
2023/08/19 13:53:27;;;;;;;7.60;7.00;;;;;;;29.58;61.98;100376.59;130535;1257;98792;-78
2023/08/19 13:56:33;;;;;;;8.10;7.50;;;;;;;29.57;61.62;100373.96;130494;1256;98044;-77
2023/08/19 13:59:39;;;;;;;8.70;7.80;;;;;;;29.60;61.63;100373.46;130549;1259;99049;-78
2023/08/19 14:02:46;;;;;;;8.40;7.40;;;;;;;29.64;60.12;100371.36;130545;1259;98001;-79
2023/08/19 14:05:52;;;;;;;8.50;7.50;;;;;;;29.68;60.42;100370.31;130604;1259;97969;-80
2023/08/19 14:08:58;;;;;;;8.70;7.90;;;;;;;29.67;58.89;100370.09;130760;1259;99043;-83
2023/08/19 14:12:04;;;;;;;8.70;7.90;;;;;;;29.59;59.11;100369.83;130725;1256;98338;-80